createdAt,value
2023-05-10T00:00:07.809Z,58.70
2023-05-10T00:00:53.486Z,58.92
2023-05-10T00:01:26.595Z,58.93
2023-05-10T00:01:59.829Z,58.75
2023-05-10T00:02:33.015Z,58.46
2023-05-10T00:03:06.581Z,58.69
2023-05-10T00:03:40.081Z,58.71
2023-05-10T00:04:13.250Z,58.70
2023-05-10T00:04:46.455Z,58.76
2023-05-10T00:05:19.784Z,58.63
2023-05-10T00:05:53.022Z,59.07
2023-05-10T00:06:26.298Z,58.86
2023-05-10T00:06:59.456Z,58.94
2023-05-10T00:07:32.505Z,58.80
2023-05-10T00:08:05.712Z,59.06
2023-05-10T00:08:38.995Z,58.99
2023-05-10T00:09:12.178Z,59.12
2023-05-10T00:09:45.487Z,59.02
2023-05-10T00:10:18.859Z,59.03
2023-05-10T00:10:53.526Z,59.14
2023-05-10T00:11:26.722Z,59.14
2023-05-10T00:12:00.119Z,58.99
2023-05-10T00:12:33.318Z,59.13
2023-05-10T00:13:06.609Z,59.09
2023-05-10T00:13:39.875Z,58.91
2023-05-10T00:14:13.119Z,59.02
2023-05-10T00:14:46.507Z,59.05
2023-05-10T00:15:19.555Z,58.98
2023-05-10T00:15:52.631Z,58.91
2023-05-10T00:16:25.811Z,59.12
2023-05-10T00:16:59.141Z,59.22
2023-05-10T00:17:32.401Z,59.20
2023-05-10T00:18:05.567Z,59.12
2023-05-10T00:18:38.740Z,58.87
2023-05-10T00:19:12.088Z,59.23
2023-05-10T00:19:45.324Z,59.21
2023-05-10T00:20:18.742Z,59.47
2023-05-10T00:20:52.152Z,59.32
2023-05-10T00:21:25.402Z,59.12
2023-05-10T00:21:58.608Z,59.21
2023-05-10T00:22:32.066Z,59.20
2023-05-10T00:23:05.273Z,59.20
2023-05-10T00:23:38.751Z,59.28
2023-05-10T00:24:12.032Z,59.23
2023-05-10T00:24:45.434Z,59.42
2023-05-10T00:25:18.686Z,59.38
2023-05-10T00:25:51.994Z,59.46
2023-05-10T00:26:25.191Z,59.34
2023-05-10T00:26:58.387Z,59.30
2023-05-10T00:27:31.516Z,59.13
2023-05-10T00:28:04.934Z,59.45
2023-05-10T00:28:37.930Z,59.28
2023-05-10T00:29:11.072Z,59.35
2023-05-10T00:29:44.133Z,59.36
2023-05-10T00:30:17.449Z,59.50
2023-05-10T00:30:50.852Z,59.26
2023-05-10T00:31:24.049Z,59.40
2023-05-10T00:31:57.526Z,59.25
2023-05-10T00:32:30.512Z,59.45
2023-05-10T00:33:04.255Z,59.53
2023-05-10T00:33:37.583Z,59.65
2023-05-10T00:34:10.639Z,59.34
2023-05-10T00:34:43.876Z,59.55
2023-05-10T00:35:17.274Z,59.67
2023-05-10T00:35:50.503Z,59.43
2023-05-10T00:36:23.731Z,59.62
2023-05-10T00:36:57.389Z,59.57
2023-05-10T00:37:30.831Z,59.50
2023-05-10T00:38:04.069Z,59.76
2023-05-10T00:38:37.250Z,59.62
2023-05-10T00:39:10.335Z,59.57
2023-05-10T00:39:43.502Z,59.58
2023-05-10T00:40:16.939Z,59.63
2023-05-10T00:40:50.371Z,59.84
2023-05-10T00:41:23.944Z,59.60
2023-05-10T00:41:57.189Z,59.82
2023-05-10T00:42:30.220Z,59.72
2023-05-10T00:43:03.356Z,59.54
2023-05-10T00:43:36.927Z,59.61
2023-05-10T00:44:10.291Z,59.80
2023-05-10T00:44:43.548Z,59.63
2023-05-10T00:45:17.055Z,59.70
2023-05-10T00:45:50.887Z,59.74
2023-05-10T00:46:24.564Z,59.53
2023-05-10T00:46:57.664Z,59.74
2023-05-10T00:47:31.005Z,59.76
2023-05-10T00:48:05.039Z,59.63
2023-05-10T00:48:38.307Z,59.65
2023-05-10T00:49:11.642Z,59.69
2023-05-10T00:49:45.291Z,59.83
2023-05-10T00:50:18.769Z,59.86
2023-05-10T00:50:52.136Z,59.81
2023-05-10T00:51:25.598Z,59.90
2023-05-10T00:51:58.883Z,59.92
2023-05-10T00:52:32.453Z,59.83
2023-05-10T00:53:05.760Z,59.88
2023-05-10T00:53:39.093Z,59.73
2023-05-10T00:54:12.937Z,59.70
2023-05-10T00:54:46.228Z,59.86
2023-05-10T00:55:19.701Z,59.88
2023-05-10T00:55:52.944Z,60.04
2023-05-10T00:56:26.687Z,59.84
2023-05-10T00:56:59.999Z,60.05
2023-05-10T00:57:33.168Z,59.86
2023-05-10T00:58:06.808Z,59.78
2023-05-10T00:58:41.128Z,59.92
2023-05-10T00:59:14.183Z,59.90
2023-05-10T00:59:47.469Z,60.10
2023-05-10T01:00:20.936Z,59.78
2023-05-10T01:00:54.732Z,60.08
2023-05-10T01:01:29.068Z,60.17
2023-05-10T01:02:02.872Z,60.01
2023-05-10T01:02:36.580Z,60.07
2023-05-10T01:03:10.818Z,60.17
2023-05-10T01:03:43.994Z,59.91
2023-05-10T01:04:17.245Z,59.78
2023-05-10T01:04:50.739Z,59.90
2023-05-10T01:05:24.082Z,60.08
2023-05-10T01:05:57.177Z,60.17
2023-05-10T01:06:30.396Z,60.08
2023-05-10T01:07:03.703Z,60.08
2023-05-10T01:07:37.039Z,60.20
2023-05-10T01:08:10.253Z,60.25
2023-05-10T01:08:43.641Z,60.08
2023-05-10T01:09:16.907Z,60.25
2023-05-10T01:09:50.075Z,60.11
2023-05-10T01:10:23.466Z,60.30
2023-05-10T01:10:56.693Z,60.28
2023-05-10T01:11:30.172Z,60.11
2023-05-10T01:12:04.126Z,60.03
2023-05-10T01:12:38.927Z,60.47
2023-05-10T01:13:12.561Z,60.18
2023-05-10T01:13:47.630Z,60.27
2023-05-10T01:14:21.530Z,60.21
2023-05-10T01:14:54.914Z,60.22
2023-05-10T01:15:28.095Z,60.34
2023-05-10T01:16:04.492Z,60.40
2023-05-10T01:16:39.381Z,60.19
2023-05-10T01:17:13.398Z,60.41
2023-05-10T01:17:48.437Z,60.30
2023-05-10T01:18:22.681Z,60.24
2023-05-10T01:18:55.880Z,60.34
2023-05-10T01:19:32.637Z,60.43
2023-05-10T01:20:06.492Z,60.34
2023-05-10T01:20:44.591Z,60.64
2023-05-10T01:21:20.782Z,60.33
2023-05-10T01:22:12.551Z,60.23
2023-05-10T01:22:52.036Z,60.44
2023-05-10T01:23:45.969Z,60.48
2023-05-10T01:24:18.919Z,60.42
2023-05-10T01:25:10.926Z,60.36
2023-05-10T01:26:02.503Z,60.36
2023-05-10T01:26:47.690Z,60.66
2023-05-10T01:27:21.056Z,60.52
2023-05-10T01:28:00.087Z,60.64
2023-05-10T01:28:51.732Z,60.59
2023-05-10T01:29:34.282Z,60.52
2023-05-10T01:30:15.449Z,60.50
2023-05-10T01:30:52.665Z,60.43
2023-05-10T01:31:25.924Z,60.62
2023-05-10T01:32:17.804Z,60.62
2023-05-10T01:32:51.738Z,60.39
2023-05-10T01:33:43.575Z,60.48
2023-05-10T01:34:24.055Z,60.60
2023-05-10T01:35:03.078Z,60.79
2023-05-10T01:35:36.228Z,60.50
2023-05-10T01:36:28.113Z,60.60
2023-05-10T01:37:07.185Z,60.58
2023-05-10T01:37:58.202Z,60.50
2023-05-10T01:38:38.628Z,60.60
2023-05-10T01:39:11.863Z,60.71
2023-05-10T01:39:53.820Z,60.76
2023-05-10T01:40:32.967Z,60.70
2023-05-10T01:41:14.390Z,60.61
2023-05-10T01:41:47.576Z,60.73
2023-05-10T01:42:28.385Z,60.65
2023-05-10T01:43:03.917Z,60.66
2023-05-10T01:43:46.363Z,60.85
2023-05-10T01:44:26.025Z,60.74
2023-05-10T01:45:13.880Z,60.83
2023-05-10T01:46:01.118Z,60.84
2023-05-10T01:46:39.789Z,60.76
2023-05-10T01:47:15.731Z,60.75
2023-05-10T01:47:54.822Z,60.80
2023-05-10T01:48:29.896Z,60.68
2023-05-10T01:49:03.802Z,60.93
2023-05-10T01:49:41.173Z,60.97
2023-05-10T01:50:19.471Z,60.91
2023-05-10T01:50:53.518Z,60.93
2023-05-10T01:51:28.853Z,60.96
2023-05-10T01:52:08.270Z,60.95
2023-05-10T01:52:43.517Z,61.20
2023-05-10T01:53:19.962Z,61.00
2023-05-10T01:53:59.529Z,60.99
2023-05-10T01:54:34.152Z,61.11
2023-05-10T01:55:09.115Z,60.92
2023-05-10T01:55:49.907Z,60.91
2023-05-10T01:56:25.482Z,60.87
2023-05-10T01:57:04.310Z,61.08
2023-05-10T01:57:40.735Z,60.87
2023-05-10T01:58:20.335Z,61.05
2023-05-10T01:58:54.059Z,60.89
2023-05-10T01:59:30.923Z,60.90
2023-05-10T02:00:05.490Z,60.94
2023-05-10T02:00:41.121Z,60.97
2023-05-10T02:01:14.894Z,61.11
2023-05-10T02:01:48.913Z,61.07
2023-05-10T02:02:22.644Z,60.98
2023-05-10T02:02:56.647Z,61.16
2023-05-10T02:03:32.304Z,61.14
2023-05-10T02:04:07.146Z,61.11
2023-05-10T02:04:41.894Z,61.19
2023-05-10T02:05:16.786Z,61.19
2023-05-10T02:05:51.129Z,61.31
2023-05-10T02:06:25.491Z,61.16
2023-05-10T02:06:58.795Z,61.29
2023-05-10T02:07:33.720Z,61.29
2023-05-10T02:08:07.961Z,61.15
2023-05-10T02:08:41.483Z,61.21
2023-05-10T02:09:15.428Z,61.39
2023-05-10T02:09:49.271Z,61.38
2023-05-10T02:10:22.412Z,61.25
2023-05-10T02:10:56.868Z,61.21
2023-05-10T02:11:30.933Z,61.27
2023-05-10T02:12:05.148Z,61.39
2023-05-10T02:12:40.655Z,61.24
2023-05-10T02:13:15.291Z,61.37
2023-05-10T02:13:49.609Z,61.27
2023-05-10T02:14:25.563Z,61.40
2023-05-10T02:15:00.569Z,61.35
2023-05-10T02:15:34.459Z,61.53
2023-05-10T02:16:08.524Z,61.26
2023-05-10T02:16:42.247Z,61.33
2023-05-10T02:17:15.476Z,61.36
2023-05-10T02:17:48.975Z,61.54
2023-05-10T02:18:23.592Z,61.58
2023-05-10T02:18:58.367Z,61.57
2023-05-10T02:19:31.464Z,61.36
2023-05-10T02:20:06.033Z,61.50
2023-05-10T02:20:39.854Z,61.37
2023-05-10T02:21:14.485Z,61.35
2023-05-10T02:21:47.865Z,61.51
2023-05-10T02:22:21.663Z,61.30
2023-05-10T02:22:55.884Z,61.57
2023-05-10T02:23:29.697Z,61.52
2023-05-10T02:24:03.798Z,61.44
2023-05-10T02:24:38.081Z,61.44
2023-05-10T02:25:12.308Z,61.59
2023-05-10T02:25:46.532Z,61.53
2023-05-10T02:26:22.615Z,61.54
2023-05-10T02:26:59.243Z,61.47
2023-05-10T02:27:32.867Z,61.45
2023-05-10T02:28:07.124Z,61.47
2023-05-10T02:28:41.585Z,61.47
2023-05-10T02:29:15.728Z,61.50
2023-05-10T02:29:49.060Z,61.54
2023-05-10T02:30:23.601Z,61.45
2023-05-10T02:30:57.388Z,61.64
2023-05-10T02:31:33.344Z,61.54
2023-05-10T02:32:07.418Z,61.53
2023-05-10T02:32:40.951Z,61.53
2023-05-10T02:33:14.824Z,61.67
2023-05-10T02:33:48.301Z,61.56
2023-05-10T02:34:22.735Z,61.64
2023-05-10T02:34:56.101Z,61.70
2023-05-10T02:35:29.441Z,61.53
2023-05-10T02:36:03.905Z,61.61
2023-05-10T02:36:38.089Z,61.62
2023-05-10T02:37:11.661Z,61.64
2023-05-10T02:37:45.236Z,61.69
2023-05-10T02:38:20.611Z,61.61
2023-05-10T02:38:54.476Z,61.64
2023-05-10T02:39:29.768Z,61.76
2023-05-10T02:40:04.619Z,61.72
2023-05-10T02:40:38.101Z,61.77
2023-05-10T02:41:12.329Z,61.71
2023-05-10T02:41:47.368Z,61.95
2023-05-10T02:42:24.754Z,61.77
2023-05-10T02:42:59.913Z,61.85
2023-05-10T02:43:33.830Z,61.89
2023-05-10T02:44:07.992Z,61.95
2023-05-10T02:44:42.417Z,61.78
2023-05-10T02:45:18.744Z,61.92
2023-05-10T02:45:52.294Z,61.86
2023-05-10T02:46:25.439Z,61.87
2023-05-10T02:46:59.756Z,62.05
2023-05-10T02:47:33.035Z,61.93
2023-05-10T02:48:06.503Z,61.99
2023-05-10T02:48:39.898Z,62.05
2023-05-10T02:49:13.185Z,62.15
2023-05-10T02:49:46.751Z,61.96
2023-05-10T02:50:20.967Z,62.10
2023-05-10T02:50:56.233Z,62.07
2023-05-10T02:51:32.911Z,62.09
2023-05-10T02:52:08.201Z,62.08
2023-05-10T02:52:47.484Z,62.07
2023-05-10T02:53:23.909Z,62.10
2023-05-10T02:53:58.573Z,62.09
2023-05-10T02:54:34.667Z,62.18
2023-05-10T02:55:10.516Z,62.11
2023-05-10T02:55:46.344Z,62.18
2023-05-10T02:56:26.974Z,62.08
2023-05-10T02:57:01.801Z,62.25
2023-05-10T02:57:35.680Z,62.14
2023-05-10T02:58:08.786Z,62.12
2023-05-10T02:58:42.068Z,62.11
2023-05-10T02:59:15.325Z,62.14
2023-05-10T02:59:48.530Z,62.07
2023-05-10T03:00:21.973Z,62.12
2023-05-10T03:00:55.143Z,62.12
2023-05-10T03:01:28.383Z,62.06
2023-05-10T03:02:01.895Z,62.15
2023-05-10T03:02:35.321Z,62.07
2023-05-10T03:03:08.868Z,62.29
2023-05-10T03:03:42.273Z,62.20
2023-05-10T03:04:15.361Z,62.38
2023-05-10T03:04:48.406Z,62.29
2023-05-10T03:05:21.663Z,62.34
2023-05-10T03:05:59.166Z,62.23
2023-05-10T03:06:32.544Z,62.31
2023-05-10T03:07:06.015Z,62.28
2023-05-10T03:07:39.216Z,62.30
2023-05-10T03:08:12.576Z,62.35
2023-05-10T03:08:46.500Z,62.43
2023-05-10T03:09:21.072Z,62.42
2023-05-10T03:09:54.414Z,62.36
2023-05-10T03:10:28.907Z,62.32
2023-05-10T03:11:01.878Z,62.53
2023-05-10T03:11:40.920Z,62.59
2023-05-10T03:12:24.635Z,62.47
2023-05-10T03:13:20.973Z,62.46
2023-05-10T03:13:54.102Z,62.57
2023-05-10T03:14:44.874Z,62.57
2023-05-10T03:15:26.398Z,62.51
2023-05-10T03:16:06.161Z,62.57
2023-05-10T03:16:53.734Z,62.60
2023-05-10T03:17:36.126Z,62.60
2023-05-10T03:18:12.248Z,62.69
2023-05-10T03:18:49.360Z,62.46
2023-05-10T03:19:28.797Z,62.55
2023-05-10T03:20:05.794Z,62.55
2023-05-10T03:20:48.478Z,62.64
2023-05-10T03:21:24.256Z,62.66
2023-05-10T03:21:59.946Z,62.76
2023-05-10T03:22:35.898Z,62.65
2023-05-10T03:23:12.593Z,62.78
2023-05-10T03:23:49.326Z,62.70
2023-05-10T03:24:24.476Z,62.78
2023-05-10T03:25:00.938Z,62.81
2023-05-10T03:25:34.681Z,62.80
2023-05-10T03:26:08.757Z,62.78
2023-05-10T03:26:44.731Z,62.70
2023-05-10T03:27:18.559Z,62.70
2023-05-10T03:27:53.244Z,62.86
2023-05-10T03:28:27.276Z,62.80
2023-05-10T03:29:00.914Z,62.68
2023-05-10T03:29:34.453Z,62.89
2023-05-10T03:30:09.972Z,62.76
2023-05-10T03:30:44.440Z,62.85
2023-05-10T03:31:18.393Z,63.04
2023-05-10T03:31:51.529Z,62.88
2023-05-10T03:32:24.915Z,62.84
2023-05-10T03:32:58.301Z,62.85
2023-05-10T03:33:31.584Z,63.03
2023-05-10T03:34:04.755Z,62.95
2023-05-10T03:34:42.321Z,62.89
2023-05-10T03:35:15.519Z,63.04
2023-05-10T03:35:49.044Z,62.95
2023-05-10T03:36:22.212Z,63.07
2023-05-10T03:36:55.387Z,62.88
2023-05-10T03:37:28.572Z,62.94
2023-05-10T03:38:02.061Z,63.08
2023-05-10T03:38:35.309Z,62.86
2023-05-10T03:39:08.543Z,62.87
2023-05-10T03:39:41.823Z,62.96
2023-05-10T03:40:15.320Z,62.64
2023-05-10T03:40:48.571Z,62.64
2023-05-10T03:41:21.902Z,62.78
2023-05-10T03:41:55.077Z,62.74
2023-05-10T03:42:28.467Z,62.83
2023-05-10T03:43:01.654Z,62.93
2023-05-10T03:43:35.116Z,62.94
2023-05-10T03:44:08.219Z,62.84
2023-05-10T03:44:41.455Z,62.98
2023-05-10T03:45:14.959Z,63.03
2023-05-10T03:45:48.025Z,63.03
2023-05-10T03:46:21.345Z,62.87
2023-05-10T03:46:54.543Z,62.96
2023-05-10T03:47:27.826Z,62.91
2023-05-10T03:48:01.278Z,63.27
2023-05-10T03:48:34.732Z,63.08
2023-05-10T03:49:07.788Z,62.95
2023-05-10T03:49:40.917Z,62.87
2023-05-10T03:50:14.320Z,63.18
2023-05-10T03:50:47.806Z,62.89
2023-05-10T03:51:21.523Z,62.99
2023-05-10T03:51:54.734Z,63.06
2023-05-10T03:52:27.768Z,62.95
2023-05-10T03:53:01.025Z,63.00
2023-05-10T03:53:34.210Z,63.13
2023-05-10T03:54:07.340Z,63.15
2023-05-10T03:54:40.378Z,63.04
2023-05-10T03:55:13.739Z,63.30
2023-05-10T03:55:47.334Z,63.10
2023-05-10T03:56:21.874Z,63.17
2023-05-10T03:56:54.997Z,63.15
2023-05-10T03:57:28.121Z,63.13
2023-05-10T03:58:01.310Z,63.22
2023-05-10T03:58:34.481Z,63.29
2023-05-10T03:59:10.720Z,63.32
2023-05-10T03:59:43.851Z,63.29
2023-05-10T04:00:17.694Z,63.48
2023-05-10T04:00:52.141Z,63.46
2023-05-10T04:01:25.297Z,63.42
2023-05-10T04:01:58.504Z,63.32
2023-05-10T04:02:32.092Z,63.40
2023-05-10T04:03:05.552Z,63.52
2023-05-10T04:03:39.466Z,63.32
2023-05-10T04:04:12.947Z,63.49
2023-05-10T04:04:46.378Z,63.48
2023-05-10T04:05:19.593Z,63.48
2023-05-10T04:06:00.094Z,63.44
2023-05-10T04:06:33.494Z,63.59
2023-05-10T04:07:06.622Z,63.49
2023-05-10T04:07:39.783Z,63.50
2023-05-10T04:08:12.952Z,63.54
2023-05-10T04:08:46.415Z,63.47
2023-05-10T04:09:19.668Z,63.45
2023-05-10T04:09:53.497Z,63.73
2023-05-10T04:10:26.738Z,63.47
2023-05-10T04:11:07.126Z,63.68
2023-05-10T04:11:40.225Z,63.74
2023-05-10T04:12:13.483Z,63.61
2023-05-10T04:12:46.635Z,63.53
2023-05-10T04:13:20.268Z,63.66
2023-05-10T04:13:53.324Z,63.80
2023-05-10T04:14:26.579Z,63.64
2023-05-10T04:14:59.746Z,63.55
2023-05-10T04:15:32.986Z,63.80
2023-05-10T04:16:06.524Z,63.59
2023-05-10T04:16:39.846Z,63.58
2023-05-10T04:17:13.150Z,63.80
2023-05-10T04:17:46.572Z,63.74
2023-05-10T04:18:19.974Z,63.78
2023-05-10T04:18:53.165Z,63.65
2023-05-10T04:19:30.348Z,63.54
2023-05-10T04:20:04.833Z,63.72
2023-05-10T04:20:38.177Z,63.70
2023-05-10T04:21:14.771Z,63.74
2023-05-10T04:21:47.872Z,63.75
2023-05-10T04:22:21.304Z,63.69
2023-05-10T04:22:54.841Z,63.83
2023-05-10T04:23:28.434Z,63.67
2023-05-10T04:24:02.734Z,63.95
2023-05-10T04:24:35.992Z,63.74
2023-05-10T04:25:09.591Z,63.99
2023-05-10T04:25:42.838Z,63.75
2023-05-10T04:26:16.715Z,63.93
2023-05-10T04:26:49.901Z,63.62
2023-05-10T04:27:23.105Z,63.60
2023-05-10T04:27:56.282Z,64.00
2023-05-10T04:28:29.667Z,63.82
2023-05-10T04:29:03.689Z,63.86
2023-05-10T04:29:36.661Z,63.75
2023-05-10T04:30:10.041Z,63.83
2023-05-10T04:30:43.249Z,63.44
2023-05-10T04:31:16.425Z,63.88
2023-05-10T04:31:50.182Z,63.96
2023-05-10T04:32:23.461Z,63.78
2023-05-10T04:32:56.617Z,63.94
2023-05-10T04:33:30.051Z,64.01
2023-05-10T04:34:03.156Z,63.64
2023-05-10T04:34:36.363Z,63.77
2023-05-10T04:35:11.213Z,63.81
2023-05-10T04:35:45.871Z,64.00
2023-05-10T04:36:19.041Z,63.80
2023-05-10T04:36:52.134Z,64.06
2023-05-10T04:37:25.272Z,63.91
2023-05-10T04:37:58.487Z,64.06
2023-05-10T04:38:31.814Z,63.97
2023-05-10T04:39:05.421Z,63.90
2023-05-10T04:39:40.308Z,63.74
2023-05-10T04:40:15.593Z,63.91
2023-05-10T04:40:49.074Z,63.82
2023-05-10T04:41:22.249Z,63.94
2023-05-10T04:41:55.468Z,63.84
2023-05-10T04:42:28.721Z,63.80
2023-05-10T04:43:01.989Z,63.53
2023-05-10T04:43:35.369Z,63.87
2023-05-10T04:44:08.596Z,63.95
2023-05-10T04:44:42.069Z,63.58
2023-05-10T04:45:18.220Z,63.93
2023-05-10T04:45:51.537Z,63.88
2023-05-10T04:46:24.629Z,63.84
2023-05-10T04:46:57.867Z,63.81
2023-05-10T04:47:30.863Z,64.00
2023-05-10T04:48:04.165Z,63.95
2023-05-10T04:48:37.394Z,64.00
2023-05-10T04:49:10.492Z,63.83
2023-05-10T04:49:43.862Z,63.81
2023-05-10T04:50:17.230Z,63.84
2023-05-10T04:50:50.528Z,63.96
2023-05-10T04:51:23.571Z,64.12
2023-05-10T04:51:57.290Z,64.05
2023-05-10T04:52:30.435Z,64.15
2023-05-10T04:53:03.779Z,63.93
2023-05-10T04:53:37.056Z,63.91
2023-05-10T04:54:10.570Z,64.02
2023-05-10T04:54:43.593Z,63.98
2023-05-10T04:55:17.246Z,63.93
2023-05-10T04:55:50.557Z,63.81
2023-05-10T04:56:23.651Z,63.82
2023-05-10T04:56:56.701Z,63.79
2023-05-10T04:57:29.873Z,63.78
2023-05-10T04:58:03.993Z,63.94
2023-05-10T04:58:37.139Z,63.82
2023-05-10T04:59:10.225Z,63.94
2023-05-10T04:59:43.803Z,63.80
2023-05-10T05:00:17.285Z,63.90
2023-05-10T05:00:50.697Z,63.86
2023-05-10T05:01:24.414Z,63.75
2023-05-10T05:01:57.856Z,63.62
2023-05-10T05:02:31.930Z,63.59
2023-05-10T05:03:05.481Z,63.76
2023-05-10T05:03:38.755Z,63.70
2023-05-10T05:04:12.156Z,63.85
2023-05-10T05:04:45.511Z,63.71
2023-05-10T05:05:18.566Z,63.83
2023-05-10T05:05:51.723Z,63.85
2023-05-10T05:06:26.183Z,63.71
2023-05-10T05:06:59.394Z,63.68
2023-05-10T05:07:32.577Z,63.72
2023-05-10T05:08:05.815Z,63.68
2023-05-10T05:08:38.999Z,63.83
2023-05-10T05:09:12.090Z,63.60
2023-05-10T05:09:45.281Z,63.60
2023-05-10T05:10:18.806Z,63.60
2023-05-10T05:10:52.099Z,63.76
2023-05-10T05:11:25.109Z,63.58
2023-05-10T05:11:58.169Z,63.83
2023-05-10T05:12:31.345Z,63.85
2023-05-10T05:13:04.639Z,63.63
2023-05-10T05:13:38.420Z,63.64
2023-05-10T05:14:11.521Z,63.88
2023-05-10T05:14:44.607Z,63.87
2023-05-10T05:15:18.092Z,63.77
2023-05-10T05:15:51.274Z,63.71
2023-05-10T05:16:24.549Z,63.68
2023-05-10T05:16:57.812Z,63.91
2023-05-10T05:17:33.555Z,63.75
2023-05-10T05:18:06.743Z,63.70
2023-05-10T05:18:40.009Z,63.83
2023-05-10T05:19:13.137Z,63.77
2023-05-10T05:19:46.301Z,63.78
2023-05-10T05:20:20.134Z,63.84
2023-05-10T05:20:53.258Z,63.82
2023-05-10T05:21:28.085Z,63.82
2023-05-10T05:22:01.261Z,63.78
2023-05-10T05:22:34.368Z,63.81
2023-05-10T05:23:07.451Z,63.84
2023-05-10T05:23:40.845Z,63.63
2023-05-10T05:24:14.105Z,63.91
2023-05-10T05:24:47.629Z,63.54
2023-05-10T05:25:20.966Z,63.69
2023-05-10T05:25:54.774Z,63.61
2023-05-10T05:26:28.016Z,63.59
2023-05-10T05:27:01.952Z,63.48
2023-05-10T05:27:35.059Z,63.57
2023-05-10T05:28:08.125Z,63.51
2023-05-10T05:28:41.182Z,63.65
2023-05-10T05:29:14.252Z,63.60
2023-05-10T05:29:47.380Z,63.54
2023-05-10T05:30:20.596Z,63.43
2023-05-10T05:30:54.229Z,63.48
2023-05-10T05:31:27.586Z,63.45
2023-05-10T05:32:01.062Z,63.48
2023-05-10T05:32:34.295Z,63.55
2023-05-10T05:33:07.548Z,63.55
2023-05-10T05:33:40.752Z,63.58
2023-05-10T05:34:13.945Z,63.55
2023-05-10T05:34:47.152Z,63.65
2023-05-10T05:35:20.285Z,63.62
2023-05-10T05:35:53.727Z,63.66
2023-05-10T05:36:26.949Z,63.52
2023-05-10T05:37:00.028Z,63.56
2023-05-10T05:37:33.275Z,63.58
2023-05-10T05:38:07.263Z,63.59
2023-05-10T05:38:40.359Z,63.58
2023-05-10T05:39:13.502Z,63.65
2023-05-10T05:39:46.877Z,63.74
2023-05-10T05:40:20.028Z,63.63
2023-05-10T05:40:53.310Z,63.63
2023-05-10T05:41:26.520Z,63.63
2023-05-10T05:41:59.854Z,63.73
2023-05-10T05:42:33.208Z,63.62
2023-05-10T05:43:06.399Z,63.67
2023-05-10T05:43:39.584Z,63.69
2023-05-10T05:44:12.723Z,63.57
2023-05-10T05:44:46.048Z,63.67
2023-05-10T05:45:19.553Z,63.63
2023-05-10T05:45:56.273Z,63.61
2023-05-10T05:46:29.425Z,63.55
2023-05-10T05:47:03.035Z,63.62
2023-05-10T05:47:36.087Z,63.58
2023-05-10T05:48:09.364Z,63.53
2023-05-10T05:48:42.512Z,63.51
2023-05-10T05:49:15.791Z,63.52
2023-05-10T05:49:48.864Z,63.55
2023-05-10T05:50:22.087Z,63.68
2023-05-10T05:50:56.664Z,63.53
2023-05-10T05:51:30.054Z,63.43
2023-05-10T05:52:03.704Z,63.46
2023-05-10T05:52:37.272Z,63.43
2023-05-10T05:53:11.134Z,63.26
2023-05-10T05:53:44.325Z,63.34
2023-05-10T05:54:17.549Z,63.38
2023-05-10T05:54:50.722Z,63.29
2023-05-10T05:55:25.265Z,63.38
2023-05-10T05:55:59.126Z,63.31
2023-05-10T05:56:32.193Z,63.30
2023-05-10T05:57:05.736Z,63.29
2023-05-10T05:57:39.054Z,63.25
2023-05-10T05:58:12.489Z,63.30
2023-05-10T05:58:45.952Z,63.30
2023-05-10T05:59:19.056Z,63.34
2023-05-10T05:59:52.096Z,63.31
2023-05-10T06:00:25.334Z,63.33
2023-05-10T06:00:58.616Z,63.26
2023-05-10T06:01:31.843Z,63.25
2023-05-10T06:02:05.078Z,63.31
2023-05-10T06:02:38.410Z,63.36
2023-05-10T06:03:11.913Z,63.35
2023-05-10T06:03:44.975Z,63.26
2023-05-10T06:04:18.449Z,63.25
2023-05-10T06:04:51.761Z,63.32
2023-05-10T06:05:24.988Z,63.27
2023-05-10T06:05:58.316Z,63.27
2023-05-10T06:06:31.632Z,63.32
2023-05-10T06:07:04.981Z,63.29
2023-05-10T06:07:38.164Z,63.09
2023-05-10T06:08:11.427Z,63.22
2023-05-10T06:08:44.629Z,63.33
2023-05-10T06:09:17.704Z,63.10
2023-05-10T06:09:50.988Z,63.05
2023-05-10T06:10:24.038Z,63.15
2023-05-10T06:10:57.379Z,62.97
2023-05-10T06:11:31.758Z,63.07
2023-05-10T06:12:04.938Z,63.19
2023-05-10T06:12:37.987Z,63.01
2023-05-10T06:13:11.278Z,63.16
2023-05-10T06:13:44.545Z,62.98
2023-05-10T06:14:17.620Z,62.88
2023-05-10T06:14:50.729Z,62.83
2023-05-10T06:15:24.030Z,62.87
2023-05-10T06:15:57.069Z,62.88
2023-05-10T06:16:30.194Z,62.84
2023-05-10T06:17:05.371Z,62.82
2023-05-10T06:17:40.000Z,62.80
2023-05-10T06:18:13.059Z,62.82
2023-05-10T06:18:46.345Z,62.82
2023-05-10T06:19:19.500Z,62.79
2023-05-10T06:19:52.649Z,62.73
2023-05-10T06:20:26.198Z,62.70
2023-05-10T06:20:59.124Z,62.90
2023-05-10T06:21:32.362Z,62.69
2023-05-10T06:22:05.641Z,62.77
2023-05-10T06:22:38.713Z,62.57
2023-05-10T06:23:12.297Z,62.76
2023-05-10T06:23:45.725Z,62.57
2023-05-10T06:24:18.929Z,62.60
2023-05-10T06:24:52.114Z,62.72
2023-05-10T06:25:25.517Z,62.63
2023-05-10T06:25:58.833Z,62.62
2023-05-10T06:26:32.202Z,62.42
2023-05-10T06:27:05.645Z,62.60
2023-05-10T06:27:38.758Z,62.54
2023-05-10T06:28:11.884Z,62.40
2023-05-10T06:28:44.886Z,62.49
2023-05-10T06:29:18.067Z,62.54
2023-05-10T06:29:56.368Z,62.50
2023-05-10T06:30:32.380Z,62.41
2023-05-10T06:31:06.197Z,62.32
2023-05-10T06:31:39.372Z,62.29
2023-05-10T06:32:12.588Z,62.21
2023-05-10T06:32:46.649Z,62.29
2023-05-10T06:33:19.939Z,62.22
2023-05-10T06:33:54.208Z,62.30
2023-05-10T06:34:29.188Z,62.24
2023-05-10T06:35:02.282Z,62.32
2023-05-10T06:35:35.305Z,62.25
2023-05-10T06:36:08.521Z,62.18
2023-05-10T06:36:42.289Z,62.22
2023-05-10T06:37:15.507Z,62.12
2023-05-10T06:37:48.718Z,62.08
2023-05-10T06:38:22.069Z,61.98
2023-05-10T06:38:55.321Z,61.96
2023-05-10T06:39:29.941Z,62.01
2023-05-10T06:40:03.157Z,61.98
2023-05-10T06:40:37.152Z,62.14
2023-05-10T06:41:10.398Z,61.92
2023-05-10T06:41:43.480Z,61.92
2023-05-10T06:42:16.586Z,61.90
2023-05-10T06:42:49.703Z,61.88
2023-05-10T06:43:23.037Z,61.97
2023-05-10T06:43:56.218Z,61.90
2023-05-10T06:44:29.366Z,61.95
2023-05-10T06:45:02.523Z,61.85
2023-05-10T06:45:35.834Z,61.88
2023-05-10T06:46:08.950Z,61.91
2023-05-10T06:46:42.970Z,61.66
2023-05-10T06:47:16.278Z,61.64
2023-05-10T06:47:49.720Z,61.63
2023-05-10T06:48:23.068Z,61.61
2023-05-10T06:48:56.368Z,61.67
2023-05-10T06:49:29.526Z,61.68
2023-05-10T06:50:02.865Z,61.57
2023-05-10T06:50:36.304Z,61.50
2023-05-10T06:51:09.375Z,61.51
2023-05-10T06:51:42.549Z,61.36
2023-05-10T06:52:15.728Z,61.42
2023-05-10T06:52:49.529Z,61.46
2023-05-10T06:53:23.729Z,61.40
2023-05-10T06:53:56.921Z,61.46
2023-05-10T06:54:30.216Z,61.50
2023-05-10T06:55:04.755Z,61.34
2023-05-10T06:55:38.175Z,61.16
2023-05-10T06:56:11.388Z,61.16
2023-05-10T06:56:44.617Z,61.13
2023-05-10T06:57:30.539Z,61.02
2023-05-10T06:58:05.589Z,60.95
2023-05-10T06:58:39.368Z,61.04
2023-05-10T06:59:13.764Z,61.01
2023-05-10T06:59:46.771Z,60.82
2023-05-10T07:00:20.529Z,60.94
2023-05-10T07:00:54.071Z,60.79
2023-05-10T07:01:27.235Z,60.71
2023-05-10T07:02:00.386Z,60.67
2023-05-10T07:02:33.735Z,60.63
2023-05-10T07:03:07.448Z,60.68
2023-05-10T07:03:40.721Z,60.59
2023-05-10T07:04:14.850Z,60.38
2023-05-10T07:04:48.380Z,60.52
2023-05-10T07:05:21.948Z,60.40
2023-05-10T07:05:56.320Z,60.36
2023-05-10T07:06:33.847Z,60.18
2023-05-10T07:07:07.182Z,60.26
2023-05-10T07:07:40.848Z,60.13
2023-05-10T07:08:14.652Z,60.08
2023-05-10T07:08:47.898Z,60.01
2023-05-10T07:09:20.994Z,59.90
2023-05-10T07:09:54.368Z,59.80
2023-05-10T07:10:27.822Z,59.86
2023-05-10T07:11:04.667Z,59.73
2023-05-10T07:11:38.645Z,59.63
2023-05-10T07:12:14.185Z,59.44
2023-05-10T07:12:48.261Z,59.45
2023-05-10T07:13:21.604Z,59.28
2023-05-10T07:13:54.903Z,59.18
2023-05-10T07:14:28.097Z,59.21
2023-05-10T07:15:01.129Z,59.10
2023-05-10T07:15:34.667Z,58.95
2023-05-10T07:16:08.934Z,59.08
2023-05-10T07:16:42.273Z,58.88
2023-05-10T07:17:15.621Z,58.89
2023-05-10T07:17:48.621Z,58.87
2023-05-10T07:18:21.942Z,58.77
2023-05-10T07:18:55.136Z,58.67
2023-05-10T07:19:28.502Z,58.63
2023-05-10T07:20:01.915Z,58.55
2023-05-10T07:20:35.070Z,58.53
2023-05-10T07:21:08.204Z,58.45
2023-05-10T07:21:43.767Z,58.51
2023-05-10T07:22:17.919Z,58.43